Time;durP1;ratioP1;P1;durP2;ratioP2;P2;SDS_P1;SDS_P2;PMS_P1;PMS_P2;Temp;Humidity;BMP_temperature;BMP_pressure;BME280_temperature;BME280_humidity;BME280_pressure;Samples;Min_cycle;Max_cycle;Signal;HPM_P1;HPM_P2
2023/05/11 00:02:13;;;;;;;6.75;4.78;;;;;;;12.43;100.00;97630.66;5120012;28;20028;-80
2023/05/11 00:04:39;;;;;;;6.35;4.53;;;;;;;12.39;100.00;97621.13;5100392;28;20027;-80
2023/05/11 00:07:05;;;;;;;7.53;4.70;;;;;;;12.36;100.00;97615.97;5118012;28;20050;-80
2023/05/11 00:09:30;;;;;;;9.88;4.60;;;;;;;12.35;100.00;97627.63;5116053;28;20024;-81
2023/05/11 00:11:56;;;;;;;6.82;4.95;;;;;;;12.29;100.00;97636.97;5116377;28;20445;-81
2023/05/11 00:14:22;;;;;;;6.90;5.25;;;;;;;12.23;100.00;97626.66;5100024;28;20031;-80
2023/05/11 00:16:47;;;;;;;5.75;4.30;;;;;;;12.19;100.00;97633.16;5115642;28;20043;-81
2023/05/11 00:19:13;;;;;;;6.72;4.95;;;;;;;12.13;100.00;97625.53;5099704;28;20032;-81
2023/05/11 00:21:38;;;;;;;10.82;4.70;;;;;;;12.10;100.00;97628.44;5118540;28;20015;-80
2023/05/11 00:24:04;;;;;;;8.38;4.85;;;;;;;12.05;100.00;97622.53;5117775;28;20023;-81
2023/05/11 00:26:30;;;;;;;6.40;4.93;;;;;;;12.06;100.00;97620.72;5117683;28;20050;-80
2023/05/11 00:28:55;;;;;;;12.45;4.82;;;;;;;12.10;100.00;97631.09;5118105;28;20028;-80
2023/05/11 00:31:21;;;;;;;8.60;4.78;;;;;;;12.11;100.00;97635.53;5118109;28;20054;-80
2023/05/11 00:33:47;;;;;;;6.25;4.18;;;;;;;12.10;100.00;97639.16;5100168;28;20483;-80
2023/05/11 00:36:14;;;;;;;6.18;4.10;;;;;;;12.10;100.00;97632.94;5118254;28;20032;-81
2023/05/11 00:38:40;;;;;;;6.47;4.43;;;;;;;12.06;100.00;97632.25;5101275;28;20020;-81
2023/05/11 00:41:06;;;;;;;7.43;4.70;;;;;;;12.00;100.00;97624.63;5101768;28;20034;-81
2023/05/11 00:43:31;;;;;;;7.82;4.97;;;;;;;12.01;100.00;97626.34;5103312;28;20026;-81
2023/05/11 00:45:57;;;;;;;6.53;4.28;;;;;;;12.01;100.00;97629.03;5121306;28;20019;-80
2023/05/11 00:48:23;;;;;;;6.95;5.22;;;;;;;12.00;100.00;97621.94;5122449;28;20031;-80
2023/05/11 00:50:49;;;;;;;8.27;4.80;;;;;;;12.00;100.00;97632.66;5105837;28;20020;-80
2023/05/11 00:53:14;;;;;;;7.93;4.35;;;;;;;12.02;100.00;97641.50;5123220;28;20023;-80
2023/05/11 00:55:40;;;;;;;6.45;4.47;;;;;;;11.96;100.00;97636.53;5114255;28;20395;-85
2023/05/11 00:58:06;;;;;;;10.13;5.05;;;;;;;11.95;100.00;97632.13;5111866;28;20538;-84
2023/05/11 01:00:31;;;;;;;5.05;3.88;;;;;;;11.84;100.00;97627.47;5111591;28;20027;-84
2023/05/11 01:02:58;;;;;;;7.10;4.55;;;;;;;11.90;100.00;97626.22;5111834;28;20052;-84
2023/05/11 01:05:54;;;;;;;10.02;4.90;;;;;;;11.94;100.00;97620.53;5094446;28;20036;-84
2023/05/11 01:08:40;;;;;;;5.72;4.50;;;;;;;11.94;100.00;97627.72;5080677;28;20043;-85
2023/05/11 01:11:10;;;;;;;6.53;4.82;;;;;;;11.89;100.00;97619.13;5107278;28;20019;-85
2023/05/11 01:13:47;;;;;;;6.53;4.47;;;;;;;11.88;100.00;97612.91;5111174;28;20064;-84
2023/05/11 01:16:25;;;;;;;7.55;4.80;;;;;;;11.93;100.00;97620.66;5094968;28;20043;-85
2023/05/11 01:19:10;;;;;;;9.43;4.40;;;;;;;11.83;100.00;97614.19;5111707;28;20451;-84
2023/05/11 01:21:37;;;;;;;6.22;3.72;;;;;;;11.76;100.00;97618.22;5111183;28;20114;-83
2023/05/11 01:24:32;;;;;;;7.50;4.15;;;;;;;11.75;100.00;97619.19;5112625;28;20023;-84
2023/05/11 01:27:02;;;;;;;7.57;3.88;;;;;;;11.69;100.00;97616.88;5111255;28;20019;-85
2023/05/11 01:30:05;;;;;;;5.05;3.55;;;;;;;11.65;100.00;97618.03;5094258;28;20042;-85
2023/05/11 01:32:32;;;;;;;9.10;4.25;;;;;;;11.60;100.00;97625.50;5112150;28;20055;-84
2023/05/11 01:35:21;;;;;;;5.05;4.05;;;;;;;11.64;100.00;97618.97;5094332;28;20096;-85
2023/05/11 01:37:53;;;;;;;6.18;4.15;;;;;;;11.63;100.00;97626.16;5083928;28;20031;-85
2023/05/11 01:40:22;;;;;;;6.25;4.43;;;;;;;11.64;100.00;97618.97;5094544;28;20477;-85
2023/05/11 01:42:51;;;;;;;8.35;5.22;;;;;;;11.64;100.00;97618.97;5093847;28;20506;-85
2023/05/11 01:45:18;;;;;;;6.93;4.57;;;;;;;11.59;100.00;97623.78;5111922;28;20045;-85
2023/05/11 01:47:44;;;;;;;9.40;5.03;;;;;;;11.57;100.00;97631.03;5111085;28;20498;-85
2023/05/11 01:50:10;;;;;;;9.13;4.57;;;;;;;11.59;100.00;97616.63;5094178;28;20104;-85
2023/05/11 01:52:37;;;;;;;6.38;4.13;;;;;;;11.60;100.00;97633.53;5111380;28;20027;-84
2023/05/11 01:55:04;;;;;;;4.97;4.10;;;;;;;11.60;100.00;97612.09;5111310;28;20023;-84
2023/05/11 01:57:31;;;;;;;4.47;3.30;;;;;;;11.59;100.00;97629.16;5111274;28;20050;-84
2023/05/11 01:59:57;;;;;;;8.45;4.05;;;;;;;11.56;100.00;97616.81;5093218;28;20088;-84
2023/05/11 02:02:23;;;;;;;9.65;5.50;;;;;;;11.56;100.00;97616.81;5111256;28;20032;-84
2023/05/11 02:04:49;;;;;;;8.77;5.53;;;;;;;11.59;100.00;97618.44;5094008;28;20115;-85
2023/05/11 02:07:16;;;;;;;5.63;3.88;;;;;;;11.62;100.00;97626.28;5111702;28;20554;-84
2023/05/11 02:09:41;;;;;;;6.10;4.47;;;;;;;11.57;100.00;97623.00;5113348;28;20096;-84
2023/05/11 02:12:08;;;;;;;7.32;3.40;;;;;;;11.55;100.00;97624.94;5112102;28;20024;-83
2023/05/11 02:14:35;;;;;;;6.25;3.38;;;;;;;11.52;100.00;97625.13;5111728;28;20471;-84
2023/05/11 02:17:02;;;;;;;5.38;3.88;;;;;;;11.49;100.00;97614.63;5111081;28;20144;-85
2023/05/11 02:19:29;;;;;;;7.10;4.03;;;;;;;11.44;100.00;97614.94;5111362;28;20062;-85
2023/05/11 02:21:55;;;;;;;5.50;3.88;;;;;;;11.49;100.00;97620.84;5101419;28;20030;-85
2023/05/11 02:24:20;;;;;;;7.75;3.90;;;;;;;11.48;100.00;97615.56;5111039;28;20023;-85
2023/05/11 02:26:46;;;;;;;5.28;3.70;;;;;;;11.54;100.00;97607.13;5110872;28;20057;-83
2023/05/11 02:29:11;;;;;;;7.90;4.15;;;;;;;11.53;100.00;97616.16;5111241;28;20035;-82
2023/05/11 02:31:42;;;;;;;5.63;4.30;;;;;;;11.52;100.00;97611.75;5093343;28;20104;-85
2023/05/11 02:34:20;;;;;;;6.63;4.10;;;;;;;11.50;100.00;97602.94;5097452;28;20027;-85
2023/05/11 02:36:53;;;;;;;8.32;5.10;;;;;;;11.53;100.00;97610.78;5097587;28;20026;-84
2023/05/11 02:39:22;;;;;;;6.00;3.65;;;;;;;11.46;100.00;97604.97;5114909;28;20031;-84
2023/05/11 02:41:54;;;;;;;6.82;3.28;;;;;;;11.41;100.00;97610.59;5097275;28;20032;-84
2023/05/11 02:44:20;;;;;;;;;;;;;;;11.40;100.00;97600.88;5114565;28;20385;-85
2023/05/11 02:46:46;;;;;;;8.48;3.92;;;;;;;11.36;100.00;97610.06;5114009;28;19914;-84
2023/05/11 02:49:13;;;;;;;13.40;4.55;;;;;;;11.32;100.00;97611.19;5096782;28;20038;-86
2023/05/11 02:51:42;;;;;;;7.15;3.70;;;;;;;11.29;100.00;97602.50;5114665;28;20074;-86
2023/05/11 02:54:11;;;;;;;7.03;4.00;;;;;;;11.31;100.00;97612.19;5114248;28;20035;-84
2023/05/11 02:56:37;;;;;;;7.53;3.83;;;;;;;11.27;100.00;97617.81;5113997;28;20515;-85
2023/05/11 02:59:03;;;;;;;7.43;4.28;;;;;;;11.16;100.00;97614.97;5114386;28;20231;-85
2023/05/11 03:01:29;;;;;;;7.22;4.47;;;;;;;11.19;100.00;97607.59;5097501;28;20364;-83
2023/05/11 03:03:55;;;;;;;6.88;3.50;;;;;;;11.18;100.00;97600.50;5096844;28;20023;-84
2023/05/11 03:06:20;;;;;;;4.75;3.60;;;;;;;11.15;100.00;97610.56;5097451;28;20023;-84
2023/05/11 03:08:46;;;;;;;5.50;4.15;;;;;;;11.11;100.00;97599.16;5115412;28;20054;-83
2023/05/11 03:11:13;;;;;;;5.97;4.25;;;;;;;11.17;100.00;97614.84;5096334;28;20108;-85
2023/05/11 03:13:41;;;;;;;9.07;3.58;;;;;;;11.09;100.00;97600.22;5113946;28;20023;-84
2023/05/11 03:16:08;;;;;;;4.47;3.10;;;;;;;11.13;100.00;97597.28;5096535;28;20028;-84
2023/05/11 03:18:35;;;;;;;7.00;3.85;;;;;;;11.13;100.00;97601.78;5096088;28;20032;-84
2023/05/11 03:21:01;;;;;;;7.82;3.60;;;;;;;11.13;100.00;97605.31;5113361;28;20038;-85
2023/05/11 03:23:27;;;;;;;7.55;3.45;;;;;;;11.15;100.00;97616.78;5113554;28;20500;-86
2023/05/11 03:25:53;;;;;;;4.32;3.47;;;;;;;11.18;100.00;97611.22;5096337;28;20058;-86
2023/05/11 03:28:20;;;;;;;6.85;3.13;;;;;;;11.21;100.00;97626.22;5096420;28;20116;-84
2023/05/11 03:30:47;;;;;;;7.45;3.58;;;;;;;11.18;100.00;97605.88;5113146;28;20082;-86
2023/05/11 03:33:12;;;;;;;4.05;3.10;;;;;;;11.21;100.00;97619.06;5113178;28;20525;-84
2023/05/11 03:35:40;;;;;;;4.38;2.90;;;;;;;11.23;100.00;97614.47;5113957;28;20016;-85
2023/05/11 03:38:06;;;;;;;4.38;3.40;;;;;;;11.16;100.00;97591.72;5113315;28;20019;-83
2023/05/11 03:40:33;;;;;;;6.80;3.47;;;;;;;11.19;100.00;97618.31;5095026;28;20023;-75
2023/05/11 03:43:01;;;;;;;7.78;3.88;;;;;;;11.22;100.00;97626.16;5095210;28;20024;-84
2023/05/11 03:45:27;;;;;;;8.73;5.25;;;;;;;11.19;100.00;97615.63;5094702;28;20114;-84
2023/05/11 03:47:53;;;;;;;9.32;5.22;;;;;;;11.22;100.00;97625.28;5113441;28;20026;-85
2023/05/11 03:50:20;;;;;;;15.63;7.05;;;;;;;11.20;100.00;97619.13;5113155;28;20487;-85
2023/05/11 03:52:46;;;;;;;10.32;5.80;;;;;;;11.25;100.00;97609.88;5112797;28;20491;-85
2023/05/11 03:55:12;;;;;;;7.22;4.47;;;;;;;11.26;100.00;97613.41;5113103;28;20046;-85
2023/05/11 03:57:38;;;;;;;9.30;5.30;;;;;;;11.26;100.00;97621.44;5114435;28;20024;-85
2023/05/11 04:00:05;;;;;;;6.50;3.97;;;;;;;11.28;100.00;97619.53;5113137;28;20037;-84
2023/05/11 04:02:33;;;;;;;7.72;4.60;;;;;;;11.30;100.00;97621.16;5095118;28;20062;-85
2023/05/11 04:05:08;;;;;;;8.55;5.05;;;;;;;11.27;100.00;97620.47;5114292;28;20031;-85
2023/05/11 04:07:35;;;;;;;12.38;3.97;;;;;;;11.31;100.00;97628.25;5113836;28;20074;-85
2023/05/11 04:10:02;;;;;;;5.03;3.58;;;;;;;11.28;100.00;97619.53;5095432;28;20028;-73
2023/05/11 04:12:28;;;;;;;6.55;4.85;;;;;;;11.34;100.00;97627.19;5095212;28;20064;-81
2023/05/11 04:14:53;;;;;;;8.40;5.18;;;;;;;11.41;100.00;97625.84;5110340;28;20031;-81
2023/05/11 04:17:19;;;;;;;8.10;4.88;;;;;;;11.50;100.00;97619.03;5093802;28;20035;-75
2023/05/11 04:19:44;;;;;;;5.13;3.28;;;;;;;11.49;100.00;97619.97;5109779;28;20023;-82
2023/05/11 04:22:11;;;;;;;5.40;4.00;;;;;;;11.43;100.00;97621.22;5111021;28;20534;-82
2023/05/11 04:24:37;;;;;;;7.70;3.45;;;;;;;11.49;100.00;97628.00;5113384;28;20019;-83
2023/05/11 04:27:02;;;;;;;4.30;3.05;;;;;;;11.49;100.00;97625.31;5113134;28;20114;-84
2023/05/11 04:29:28;;;;;;;7.55;3.88;;;;;;;11.49;100.00;97622.66;5113706;28;20516;-85
2023/05/11 04:31:54;;;;;;;5.13;3.50;;;;;;;11.54;100.00;97624.06;5114105;28;20044;-85
2023/05/11 04:34:20;;;;;;;8.95;4.47;;;;;;;11.51;100.00;97631.44;5113425;28;20028;-83
2023/05/11 04:36:49;;;;;;;6.25;3.70;;;;;;;11.50;100.00;97627.06;5111843;28;20026;-84
2023/05/11 04:39:18;;;;;;;5.15;3.50;;;;;;;11.54;100.00;97639.28;5111898;28;20359;-84
2023/05/11 04:41:43;;;;;;;7.35;3.83;;;;;;;11.57;100.00;97628.34;5111284;28;20471;-84
2023/05/11 04:44:09;;;;;;;6.38;3.72;;;;;;;11.68;100.00;97641.94;5111998;28;20020;-82
2023/05/11 04:46:35;;;;;;;4.25;3.30;;;;;;;11.72;100.00;97630.09;5094555;28;20403;-83
2023/05/11 04:49:01;;;;;;;9.18;4.05;;;;;;;11.77;100.00;97628.84;5111396;28;20092;-82
2023/05/11 04:51:26;;;;;;;5.35;3.85;;;;;;;11.73;100.00;97632.69;5112743;28;20019;-82
2023/05/11 04:53:52;;;;;;;5.72;3.72;;;;;;;11.81;100.00;97633.03;5111651;28;20028;-82
2023/05/11 04:56:19;;;;;;;6.88;3.80;;;;;;;11.70;100.00;97634.69;5111344;28;20080;-82
2023/05/11 04:58:44;;;;;;;8.38;5.28;;;;;;;11.77;100.00;97636.88;5111313;28;20117;-83
2023/05/11 05:01:10;;;;;;;5.85;3.95;;;;;;;11.69;100.00;97641.81;5094402;28;20110;-82
2023/05/11 05:03:35;;;;;;;6.97;4.00;;;;;;;11.65;100.00;97631.44;5112783;28;20023;-83
2023/05/11 05:06:01;;;;;;;5.63;3.90;;;;;;;11.66;100.00;97646.56;5112788;28;20026;-81
2023/05/11 05:08:26;;;;;;;6.40;3.20;;;;;;;11.65;100.00;97626.06;5094654;28;20024;-83
2023/05/11 05:10:52;;;;;;;4.82;3.17;;;;;;;11.62;100.00;97634.31;5111638;28;20547;-84
2023/05/11 05:13:17;;;;;;;7.90;3.83;;;;;;;11.60;100.00;97644.25;5111156;28;20046;-84
2023/05/11 05:15:43;;;;;;;6.68;3.60;;;;;;;11.61;100.00;97640.63;5111274;28;20028;-83
2023/05/11 05:18:08;;;;;;;4.68;3.38;;;;;;;11.66;100.00;97639.34;5112292;28;20057;-83
2023/05/11 05:20:35;;;;;;;8.75;4.45;;;;;;;11.69;100.00;97649.88;5111168;28;20026;-84
2023/05/11 05:23:01;;;;;;;6.93;3.20;;;;;;;11.65;100.00;97639.47;5111231;28;20144;-83
2023/05/11 05:25:27;;;;;;;5.75;3.60;;;;;;;11.59;100.00;97639.88;5112904;28;20522;-83
2023/05/11 05:27:52;;;;;;;6.05;4.15;;;;;;;11.63;100.00;97660.16;5094016;28;20024;-84
2023/05/11 05:30:18;;;;;;;6.32;3.28;;;;;;;11.64;100.00;97656.50;5094582;28;20028;-83
2023/05/11 05:32:43;;;;;;;6.38;4.00;;;;;;;11.59;100.00;97655.94;5110106;28;20081;-83
2023/05/11 05:35:09;;;;;;;5.15;3.15;;;;;;;11.68;100.00;97655.34;5110502;28;20031;-83
2023/05/11 05:37:36;;;;;;;5.55;3.50;;;;;;;11.64;100.00;97661.84;5111779;28;20515;-82
2023/05/11 05:40:03;;;;;;;5.47;3.35;;;;;;;11.67;100.00;97656.28;5111016;28;20467;-83
2023/05/11 05:42:28;;;;;;;8.90;4.05;;;;;;;11.70;100.00;97656.13;5112709;28;20032;-82
2023/05/11 05:44:54;;;;;;;6.82;4.40;;;;;;;11.80;100.00;97671.53;5112841;28;20406;-83
2023/05/11 05:47:19;;;;;;;6.15;3.38;;;;;;;11.72;100.00;97664.94;5110312;28;20550;-82
2023/05/11 05:49:45;;;;;;;5.10;2.75;;;;;;;11.75;100.00;97662.06;5093301;28;20035;-82
2023/05/11 05:52:10;;;;;;;5.03;3.38;;;;;;;11.84;100.00;97682.91;5110379;28;20159;-82
2023/05/11 05:54:36;;;;;;;5.53;4.05;;;;;;;11.91;100.00;97676.16;5111915;28;20114;-83
2023/05/11 05:57:01;;;;;;;5.40;3.58;;;;;;;12.01;100.00;97677.28;5112553;28;20055;-83
2023/05/11 05:59:27;;;;;;;4.38;2.78;;;;;;;12.03;100.00;97680.72;5111949;28;20031;-83
2023/05/11 06:01:52;;;;;;;8.73;4.22;;;;;;;12.16;100.00;97670.91;5110458;28;20119;-81
2023/05/11 06:04:18;;;;;;;11.00;5.70;;;;;;;12.25;100.00;97678.34;5110571;28;20463;-83
2023/05/11 06:06:43;;;;;;;4.78;3.60;;;;;;;12.37;100.00;97684.72;5110341;28;20120;-81
2023/05/11 06:09:09;;;;;;;6.28;2.97;;;;;;;12.37;100.00;97668.63;5115913;28;20109;-82
2023/05/11 06:11:35;;;;;;;4.45;3.33;;;;;;;12.21;100.00;97663.41;5114173;28;20016;-81
2023/05/11 06:14:01;;;;;;;3.85;2.72;;;;;;;12.15;100.00;97666.50;5098220;28;20034;-83
2023/05/11 06:16:26;;;;;;;6.72;3.53;;;;;;;12.16;100.00;97673.59;5116234;28;20513;-79
2023/05/11 06:18:52;;;;;;;8.07;4.03;;;;;;;12.34;100.00;97684.91;5113928;28;20028;-80
2023/05/11 06:21:18;;;;;;;4.47;3.22;;;;;;;12.41;100.00;97676.38;5115165;28;20024;-80
2023/05/11 06:23:43;;;;;;;6.07;3.58;;;;;;;12.44;100.00;97678.84;5096614;28;20032;-80
2023/05/11 06:26:09;;;;;;;7.68;3.08;;;;;;;12.55;100.00;97682.63;5114555;28;20043;-86
2023/05/11 06:28:34;;;;;;;6.18;3.95;;;;;;;12.48;100.00;97674.16;5114734;28;20535;-86
2023/05/11 06:31:02;;;;;;;7.75;3.50;;;;;;;12.52;100.00;97686.38;5115782;28;20034;-87
2023/05/11 06:33:28;;;;;;;6.95;3.20;;;;;;;12.46;100.00;97679.59;5114653;28;20043;-83
2023/05/11 06:35:53;;;;;;;7.43;3.60;;;;;;;12.35;100.00;97678.59;5114592;28;20038;-83
2023/05/11 06:38:19;;;;;;;6.60;2.95;;;;;;;12.33;100.00;97693.94;5113988;28;20084;-83
2023/05/11 06:40:44;;;;;;;7.85;3.17;;;;;;;12.17;100.00;97666.41;5096622;28;20031;-84
2023/05/11 06:43:10;;;;;;;5.55;3.42;;;;;;;12.36;100.00;97681.19;5113842;28;20019;-84
2023/05/11 06:45:36;;;;;;;7.60;4.22;;;;;;;12.45;100.00;97694.00;5113917;28;20032;-83
2023/05/11 06:48:02;;;;;;;5.05;3.03;;;;;;;12.48;100.00;97683.06;5115065;28;20448;-83
2023/05/11 06:50:28;;;;;;;8.75;3.55;;;;;;;12.50;100.00;97689.16;5115690;28;20028;-84
2023/05/11 06:52:53;;;;;;;6.38;3.40;;;;;;;12.51;100.00;97681.97;5113254;28;20034;-84
2023/05/11 06:55:22;;;;;;;3.38;2.70;;;;;;;12.65;100.00;97691.75;5113549;28;20092;-84
2023/05/11 06:57:47;;;;;;;9.70;5.07;;;;;;;12.80;100.00;97696.09;5113485;28;20395;-86
2023/05/11 07:00:13;;;;;;;3.45;2.83;;;;;;;12.90;98.31;97686.44;5115115;28;20110;-87
2023/05/11 07:02:39;;;;;;;7.03;4.32;;;;;;;13.04;98.19;97684.50;5114568;28;20122;-86
2023/05/11 07:05:05;;;;;;;4.88;3.22;;;;;;;13.30;96.24;97687.25;5114316;28;20156;-85
2023/05/11 07:07:30;;;;;;;5.13;2.72;;;;;;;13.34;94.21;97688.75;5113556;28;20028;-83
2023/05/11 07:09:56;;;;;;;2.88;2.20;;;;;;;13.30;94.01;97682.72;5114218;28;20076;-84
2023/05/11 07:12:21;;;;;;;4.57;2.95;;;;;;;13.33;94.81;97679.81;5113527;28;20020;-85
2023/05/11 07:14:47;;;;;;;5.15;2.60;;;;;;;13.36;93.82;97682.28;5113172;28;20102;-85
2023/05/11 07:17:12;;;;;;;7.05;3.15;;;;;;;13.27;93.68;97676.72;5114800;28;20053;-85
2023/05/11 07:19:41;;;;;;;6.20;3.60;;;;;;;13.38;94.71;97693.78;5112300;28;20020;-85
2023/05/11 07:22:07;;;;;;;5.03;2.38;;;;;;;13.43;93.04;97680.91;5113802;28;20022;-83
2023/05/11 07:24:32;;;;;;;7.07;3.38;;;;;;;13.39;93.07;97673.16;5113180;28;20115;-84
2023/05/11 07:26:57;;;;;;;5.13;2.70;;;;;;;13.44;91.74;97679.91;5112937;28;20080;-83
2023/05/11 07:29:23;;;;;;;4.65;3.35;;;;;;;13.55;91.51;97665.72;5112738;28;20080;-83
2023/05/11 07:31:48;;;;;;;5.00;3.10;;;;;;;13.67;90.60;97674.72;5112738;28;20032;-83
2023/05/11 07:34:15;;;;;;;12.18;3.60;;;;;;;13.76;90.32;97669.53;5095614;28;20127;-84
2023/05/11 07:36:41;;;;;;;6.20;3.72;;;;;;;13.68;90.01;97671.06;5114516;28;20102;-85
2023/05/11 07:39:06;;;;;;;6.43;3.60;;;;;;;13.80;91.36;97675.56;5113241;28;20012;-83
2023/05/11 07:41:32;;;;;;;5.20;3.50;;;;;;;13.79;89.71;97668.44;5113154;28;20024;-82
2023/05/11 07:43:59;;;;;;;10.98;3.17;;;;;;;13.96;88.40;97677.03;5113084;28;20487;-84
2023/05/11 07:46:25;;;;;;;6.28;3.40;;;;;;;14.22;87.94;97672.38;5113546;28;20149;-83
2023/05/11 07:48:51;;;;;;;8.55;3.88;;;;;;;14.36;86.21;97663.34;5113824;28;20081;-80
2023/05/11 07:51:16;;;;;;;5.00;2.90;;;;;;;14.51;83.12;97657.66;5111422;28;20118;-83
2023/05/11 07:53:42;;;;;;;6.00;3.10;;;;;;;14.45;85.25;97662.63;5114741;28;20030;-83
2023/05/11 07:56:08;;;;;;;6.18;3.90;;;;;;;14.49;84.45;97667.66;5112606;28;20015;-84
2023/05/11 07:58:34;;;;;;;5.00;3.55;;;;;;;14.78;82.53;97670.81;5112680;28;20498;-83
2023/05/11 08:01:00;;;;;;;7.65;3.22;;;;;;;14.83;80.99;97657.84;5112957;28;20027;-82
2023/05/11 08:03:26;;;;;;;4.28;2.80;;;;;;;14.98;79.62;97661.22;5112721;28;20020;-82
2023/05/11 08:05:51;;;;;;;5.72;3.22;;;;;;;14.86;80.87;97663.00;5095478;28;20035;-84
2023/05/11 08:08:17;;;;;;;9.10;3.38;;;;;;;14.88;80.02;97661.06;5094711;28;20020;-83
2023/05/11 08:10:42;;;;;;;4.03;2.47;;;;;;;14.93;78.63;97660.69;5095225;28;20424;-82
2023/05/11 08:13:08;;;;;;;3.65;2.70;;;;;;;15.16;78.84;97666.00;5112403;28;20043;-83
2023/05/11 08:15:33;;;;;;;3.17;2.70;;;;;;;15.27;77.65;97662.47;5111973;28;20070;-82
2023/05/11 08:17:59;;;;;;;3.72;2.72;;;;;;;15.33;76.14;97659.28;5112113;28;20023;-81
2023/05/11 08:20:25;;;;;;;5.95;2.97;;;;;;;15.43;77.08;97668.38;5095515;28;20020;-84
2023/05/11 08:22:51;;;;;;;4.40;2.85;;;;;;;15.83;74.52;97673.28;5095090;28;20024;-84
2023/05/11 08:25:16;;;;;;;4.60;2.67;;;;;;;16.09;69.72;97672.00;5095045;28;20112;-84
2023/05/11 08:27:42;;;;;;;9.95;3.05;;;;;;;16.35;68.11;97668.03;5112546;28;20027;-83
2023/05/11 08:30:08;;;;;;;6.55;3.50;;;;;;;16.36;67.06;97658.97;5112104;28;20023;-82
2023/05/11 08:32:35;;;;;;;4.70;2.70;;;;;;;16.66;67.06;97660.94;5095924;28;20188;-83
2023/05/11 08:35:01;;;;;;;5.45;3.25;;;;;;;16.99;63.55;97662.59;5113963;28;20399;-85
2023/05/11 08:37:26;;;;;;;3.50;2.65;;;;;;;17.10;64.28;97665.25;5112909;28;20030;-85
2023/05/11 08:39:52;;;;;;;5.05;3.20;;;;;;;17.49;61.58;97664.50;5112418;28;20441;-85
2023/05/11 08:42:18;;;;;;;4.32;2.72;;;;;;;17.26;60.79;97634.03;5112821;28;20019;-83
2023/05/11 08:44:44;;;;;;;4.35;2.60;;;;;;;17.07;61.13;97635.78;5112313;28;20102;-82
2023/05/11 08:47:10;;;;;;;7.60;2.90;;;;;;;16.89;62.34;97637.38;5112084;28;20398;-81
2023/05/11 08:49:36;;;;;;;5.03;2.78;;;;;;;16.99;62.78;97641.84;5111634;28;20043;-83
2023/05/11 08:52:04;;;;;;;4.22;2.63;;;;;;;17.04;60.48;97627.94;5113406;28;20395;-83
2023/05/11 08:54:48;;;;;;;5.75;2.47;;;;;;;16.89;60.58;97623.88;5112206;28;20030;-83
2023/05/11 08:57:14;;;;;;;3.97;2.75;;;;;;;16.91;61.80;97640.81;5110435;28;20152;-82
2023/05/11 08:59:45;;;;;;;3.08;2.55;;;;;;;17.15;60.44;97634.13;5095057;28;20427;-82
2023/05/11 09:02:15;;;;;;;3.95;2.60;;;;;;;17.01;60.54;97623.63;5111495;28;20031;-81
2023/05/11 09:04:42;;;;;;;5.25;2.80;;;;;;;17.09;60.76;97625.69;5112642;28;20051;-82
2023/05/11 09:07:14;;;;;;;4.13;2.63;;;;;;;17.11;59.30;97619.16;5112201;28;20031;-82
2023/05/11 09:09:40;;;;;;;8.32;4.55;;;;;;;16.99;60.75;97614.81;5112305;28;20028;-83
2023/05/11 09:12:07;;;;;;;6.35;3.17;;;;;;;17.18;59.92;97614.94;5111490;28;20096;-84
2023/05/11 09:14:33;;;;;;;4.82;3.05;;;;;;;17.35;58.83;97616.16;5111684;28;20020;-84
2023/05/11 09:16:58;;;;;;;4.72;2.22;;;;;;;17.32;57.78;97600.19;5112289;28;20505;-82
2023/05/11 09:19:24;;;;;;;7.45;2.72;;;;;;;17.31;58.10;97601.19;5094632;28;20039;-82
2023/05/11 09:21:52;;;;;;;5.30;2.60;;;;;;;17.48;57.02;97607.81;5111525;28;20024;-83
2023/05/11 09:24:19;;;;;;;7.45;3.17;;;;;;;17.45;56.98;97608.06;5094433;28;20089;-80
2023/05/11 09:26:44;;;;;;;6.13;3.25;;;;;;;17.71;57.29;97604.81;5094594;28;20105;-81
2023/05/11 09:29:10;;;;;;;4.22;2.55;;;;;;;18.12;55.49;97602.91;5112547;28;20062;-82
2023/05/11 09:31:46;;;;;;;6.30;3.28;;;;;;;18.19;55.71;97615.75;5094452;28;20012;-82
2023/05/11 09:34:22;;;;;;;6.50;2.80;;;;;;;18.52;53.47;97595.53;5124957;27;20039;-82
2023/05/11 09:36:50;;;;;;;3.72;2.47;;;;;;;18.72;53.78;97605.38;5111127;28;20028;-82
2023/05/11 09:39:18;;;;;;;4.53;2.92;;;;;;;18.83;52.55;97597.09;5094150;28;20039;-81
2023/05/11 09:41:44;;;;;;;3.20;2.42;;;;;;;18.64;52.61;97580.84;5110133;28;20024;-82
2023/05/11 09:44:18;;;;;;;5.43;2.58;;;;;;;18.84;52.71;97589.81;5110312;28;20022;-82
2023/05/11 09:46:44;;;;;;;4.75;2.45;;;;;;;19.46;51.46;97592.81;5093913;28;20027;-82
2023/05/11 09:49:13;;;;;;;6.65;3.85;;;;;;;19.71;51.21;97574.13;5110431;28;20027;-83
2023/05/11 09:51:39;;;;;;;3.40;2.30;;;;;;;20.20;49.86;97586.41;5110740;28;20396;-82
2023/05/11 09:54:17;;;;;;;13.18;7.10;;;;;;;20.74;48.50;97588.13;5111217;28;20031;-82
2023/05/11 09:56:48;;;;;;;4.63;3.25;;;;;;;21.19;47.47;97582.56;5110583;28;20479;-82
2023/05/11 09:59:38;;;;;;;6.78;2.92;;;;;;;21.69;46.26;97566.34;5093886;28;20035;-82
2023/05/11 10:02:17;;;;;;;5.85;2.92;;;;;;;22.79;44.18;97586.09;5111546;28;20039;-83
2023/05/11 10:04:42;;;;;;;3.42;2.53;;;;;;;21.77;44.05;97514.63;5094277;28;20035;-82
2023/05/11 10:07:40;;;;;;;3.38;2.20;;;;;;;22.18;44.17;97542.88;5111318;28;20399;-82
2023/05/11 10:10:08;;;;;;;3.97;3.35;;;;;;;23.67;42.49;97585.13;5067059;28;20108;-83
2023/05/11 10:12:37;;;;;;;4.05;2.90;;;;;;;24.35;40.16;97558.00;5094476;28;20575;-82
2023/05/11 10:15:11;;;;;;;4.15;2.70;;;;;;;24.21;40.14;97518.59;5112657;28;20060;-83
2023/05/11 10:17:36;;;;;;;3.35;1.95;;;;;;;25.77;38.09;97569.94;5101815;28;20030;-82
2023/05/11 10:20:03;;;;;;;5.63;2.58;;;;;;;27.29;35.87;97574.22;5112626;28;20398;-82
2023/05/11 10:22:29;;;;;;;3.20;2.30;;;;;;;26.82;35.16;97459.56;5111627;28;20110;-81
2023/05/11 10:24:56;;;;;;;6.68;2.38;;;;;;;27.61;34.83;97500.47;5093437;28;20074;-83
2023/05/11 10:27:22;;;;;;;2.80;2.30;;;;;;;28.91;32.66;97502.00;5111728;28;20455;-82
2023/05/11 10:29:48;;;;;;;4.07;2.83;;;;;;;28.78;33.10;97449.66;5112028;28;20062;-82
2023/05/11 10:32:18;;;;;;;5.03;2.10;;;;;;;28.56;32.81;97401.31;5110989;28;20043;-83
2023/05/11 10:34:49;;;;;;;3.47;1.90;;;;;;;28.27;32.74;97369.56;5112186;28;20032;-82
2023/05/11 10:37:45;;;;;;;2.53;2.10;;;;;;;27.62;34.41;97419.72;5111112;28;20081;-81
2023/05/11 10:40:11;;;;;;;2.53;1.98;;;;;;;27.45;34.16;97433.81;5097030;28;20040;-82
2023/05/11 10:42:42;;;;;;;4.80;2.25;;;;;;;28.92;32.92;97482.50;5094079;28;20066;-82
2023/05/11 10:45:36;;;;;;;6.68;2.63;;;;;;;29.43;32.63;97465.31;5110820;28;20051;-83
2023/05/11 10:48:17;;;;;;;3.30;2.20;;;;;;;28.40;32.55;97433.72;5111638;28;20019;-82
2023/05/11 10:50:56;;;;;;;4.40;2.80;;;;;;;28.30;32.04;97429.69;5111939;28;20038;-83
2023/05/11 10:53:37;;;;;;;3.13;2.15;;;;;;;27.11;33.39;97389.84;5094461;28;20106;-83
2023/05/11 10:56:27;;;;;;;3.45;2.40;;;;;;;26.87;34.73;97420.50;5113465;28;20055;-81
2023/05/11 10:59:27;;;;;;;4.38;2.78;;;;;;;27.27;35.19;97427.13;5115104;28;20034;-82
2023/05/11 11:01:57;;;;;;;8.48;4.57;;;;;;;27.44;34.01;97428.50;5113819;28;20035;-84
2023/05/11 11:04:22;;;;;;;9.80;6.63;;;;;;;28.40;33.96;97450.22;5097349;28;20177;-81
2023/05/11 11:07:03;;;;;;;4.65;3.40;;;;;;;28.13;33.42;97406.38;5114691;28;20072;-83
2023/05/11 11:09:55;;;;;;;4.47;3.35;;;;;;;26.30;35.84;97360.31;5112147;28;20028;-80
2023/05/11 11:12:23;;;;;;;11.98;4.60;;;;;;;24.88;37.83;97349.13;5105513;28;20042;-81
2023/05/11 11:15:05;;;;;;;8.35;3.40;;;;;;;25.37;37.88;97393.19;5110091;28;20042;-81
2023/05/11 11:17:33;;;;;;;3.28;2.67;;;;;;;25.77;36.67;97372.59;5093873;28;20027;-81
2023/05/11 11:20:05;;;;;;;6.15;2.83;;;;;;;25.60;37.40;97376.59;5110637;28;20032;-82
2023/05/11 11:22:34;;;;;;;3.15;2.15;;;;;;;24.39;37.76;97321.44;5110699;28;20107;-83
2023/05/11 11:25:04;;;;;;;3.40;2.65;;;;;;;24.19;39.01;97353.91;5110557;28;20035;-82
2023/05/11 11:27:51;;;;;;;5.25;3.05;;;;;;;25.82;36.68;97408.50;5111225;28;20380;-83
2023/05/11 11:30:22;;;;;;;3.30;2.50;;;;;;;26.91;34.97;97419.06;5101148;28;20043;-83
2023/05/11 11:32:53;;;;;;;11.60;7.53;;;;;;;27.25;34.45;97410.84;5112118;28;20112;-84
2023/05/11 11:35:45;;;;;;;3.88;2.47;;;;;;;28.22;32.83;97438.97;5111426;28;20111;-84